Time;durP1;ratioP1;P1;durP2;ratioP2;P2;SDS_P1;SDS_P2;PMS_P1;PMS_P2;Temp;Humidity;BMP_temperature;BMP_pressure;BME280_temperature;BME280_humidity;BME280_pressure;Samples;Min_cycle;Max_cycle;Signal;HPM_P1;HPM_P2
2023/10/24 00:02:13;;;;;;;;;;;;;;;14.89;65.19;100112.19;4934867;29;19918;-78
2023/10/24 00:04:39;;;;;;;;;;;;;;;14.88;65.53;100107.84;4947696;29;20245;-79
2023/10/24 00:07:04;;;;;;;;;;;;;;;14.88;65.41;100103.22;4947075;29;20274;-79
2023/10/24 00:09:29;;;;;;;;;;;;;;;14.87;65.35;100104.34;4949537;28;20363;-79
2023/10/24 00:11:55;;;;;;;;;;;;;;;14.88;65.19;100096.97;4934221;29;19926;-79
2023/10/24 00:14:20;;;;;;;;;;;;;;;14.88;65.35;100099.69;4934397;29;19973;-79
2023/10/24 00:16:45;;;;;;;;;;;;;;;14.86;65.41;100102.69;4939329;29;19923;-79
2023/10/24 00:19:10;;;;;;;;;;;;;;;14.86;65.61;100099.97;4964175;28;19922;-78
2023/10/24 00:21:36;;;;;;;;;;;;;;;14.87;65.49;100106.25;4934857;29;19919;-77
2023/10/24 00:24:01;;;;;;;;;;;;;;;14.87;65.50;100104.34;4949251;28;20283;-78
2023/10/24 00:26:26;;;;;;;;;;;;;;;14.88;65.47;100099.69;4961588;28;20291;-78
2023/10/24 00:28:51;;;;;;;;;;;;;;;14.87;65.30;100096.16;4934595;29;19966;-78
2023/10/24 00:31:17;;;;;;;;;;;;;;;14.89;65.23;100099.41;4934474;29;20256;-78
2023/10/24 00:33:42;;;;;;;;;;;;;;;14.88;65.37;100100.50;4936725;29;20018;-80
2023/10/24 00:36:07;;;;;;;;;;;;;;;14.90;65.11;100097.50;4948146;29;20283;-80
2023/10/24 00:38:33;;;;;;;;;;;;;;;14.89;65.03;100099.41;4945193;29;19919;-80
2023/10/24 00:40:59;;;;;;;;;;;;;;;14.89;65.17;100096.69;4938258;29;19923;-80
2023/10/24 00:43:24;;;;;;;;;;;;;;;14.89;65.33;100091.25;4953248;28;19926;-81
2023/10/24 00:45:49;;;;;;;;;;;;;;;14.89;64.84;100099.41;4944934;29;20381;-80
2023/10/24 00:48:14;;;;;;;;;;;;;;;14.89;65.42;100104.03;4949947;28;19930;-80
2023/10/24 00:50:40;;;;;;;;;;;;;;;14.89;65.19;100102.16;4952636;29;20334;-80
2023/10/24 00:53:05;;;;;;;;;;;;;;;14.90;65.10;100108.38;4938674;29;19927;-80
2023/10/24 00:55:31;;;;;;;;;;;;;;;14.90;65.27;100106.47;4942728;29;20001;-80
2023/10/24 00:57:58;;;;;;;;;;;;;;;14.90;65.13;100111.09;4932258;29;20021;-80
2023/10/24 01:00:24;;;;;;;;;;;;;;;14.90;65.11;100100.22;4937540;29;20378;-80
2023/10/24 01:02:50;;;;;;;;;;;;;;;14.90;65.20;100101.03;4938554;29;19974;-79
2023/10/24 01:05:16;;;;;;;;;;;;;;;14.89;65.29;100106.75;4939075;29;19977;-80
2023/10/24 01:07:41;;;;;;;;;;;;;;;14.88;65.13;100107.84;4955616;29;19962;-79
2023/10/24 01:10:07;;;;;;;;;;;;;;;14.87;65.12;100098.91;4955024;29;19922;-80
2023/10/24 01:12:32;;;;;;;;;;;;;;;14.88;65.21;100092.34;4944983;28;20278;-80
2023/10/24 01:14:57;;;;;;;;;;;;;;;14.88;65.04;100094.25;4943256;29;19922;-80
2023/10/24 01:17:50;;;;;;;;;;;;;;;14.86;65.41;100097.25;4915991;29;19926;-80
2023/10/24 01:20:16;;;;;;;;;;;;;;;14.85;65.27;100100.28;4939498;29;19973;-80
2023/10/24 01:22:42;;;;;;;;;;;;;;;14.82;65.51;100104.38;4954999;29;19919;-80
2023/10/24 01:25:11;;;;;;;;;;;;;;;14.83;65.29;100094.31;4963542;28;19918;-80
2023/10/24 01:27:37;;;;;;;;;;;;;;;14.83;65.32;100094.31;4956993;28;19918;-79
2023/10/24 01:30:02;;;;;;;;;;;;;;;14.83;65.38;100097.03;4953977;29;19918;-79
2023/10/24 01:32:31;;;;;;;;;;;;;;;14.82;65.62;100096.22;4938656;28;20282;-80
2023/10/24 01:34:56;;;;;;;;;;;;;;;14.81;65.23;100100.03;4952925;28;19919;-82
2023/10/24 01:37:21;;;;;;;;;;;;;;;14.81;65.56;100110.09;4969310;28;19935;-81
2023/10/24 01:39:46;;;;;;;;;;;;;;;14.81;65.40;100112.81;4951914;29;19934;-81
2023/10/24 01:42:12;;;;;;;;;;;;;;;14.80;65.32;100101.13;4937326;29;20025;-81
2023/10/24 01:44:37;;;;;;;;;;;;;;;14.81;65.36;100112.81;4951703;29;19919;-79
2023/10/24 01:47:02;;;;;;;;;;;;;;;14.80;65.45;100109.28;4930004;29;19966;-80
2023/10/24 01:49:28;;;;;;;;;;;;;;;14.79;65.48;100102.25;4924304;29;19926;-80
2023/10/24 01:51:53;;;;;;;;;;;;;;;14.80;65.33;100103.03;4952091;29;20006;-80
2023/10/24 01:54:18;;;;;;;;;;;;;;;14.77;65.62;100107.16;4947758;29;19922;-80
2023/10/24 01:56:43;;;;;;;;;;;;;;;14.77;65.43;100100.91;4955791;28;20286;-80
2023/10/24 01:59:09;;;;;;;;;;;;;;;14.77;65.47;100109.88;4954877;28;20002;-81
2023/10/24 02:01:34;;;;;;;;;;;;;;;14.77;65.46;100100.91;4948008;28;20299;-81
2023/10/24 02:04:00;;;;;;;;;;;;;;;14.76;65.62;100097.34;4941384;28;19933;-81
2023/10/24 02:06:25;;;;;;;;;;;;;;;14.78;65.52;100102.50;4936510;28;20359;-81
2023/10/24 02:08:50;;;;;;;;;;;;;;;14.79;65.30;100101.41;4937024;29;20278;-81
2023/10/24 02:11:15;;;;;;;;;;;;;;;14.77;65.54;100101.72;4945749;29;19922;-80
2023/10/24 02:13:41;;;;;;;;;;;;;;;14.76;65.29;100094.63;4941975;29;19930;-79
2023/10/24 02:16:06;;;;;;;;;;;;;;;14.76;65.56;100091.91;4945661;29;19930;-79
2023/10/24 02:18:31;;;;;;;;;;;;;;;14.77;65.56;100099.00;4951129;28;20394;-79
2023/10/24 02:20:56;;;;;;;;;;;;;;;14.76;65.56;100104.69;4953547;29;19968;-80
2023/10/24 02:23:22;;;;;;;;;;;;;;;14.74;65.36;100099.56;4949308;29;19919;-80
2023/10/24 02:25:47;;;;;;;;;;;;;;;14.74;65.60;100098.72;4951511;28;20359;-80
2023/10/24 02:28:12;;;;;;;;;;;;;;;14.74;65.62;100105.00;4962781;28;19926;-80
2023/10/24 02:30:38;;;;;;;;;;;;;;;14.73;65.52;100106.09;4953883;29;19981;-79
2023/10/24 02:33:03;;;;;;;;;;;;;;;14.73;65.66;100102.56;4947536;28;20371;-79
2023/10/24 02:35:28;;;;;;;;;;;;;;;14.71;65.49;100103.66;4936081;29;20363;-79
2023/10/24 02:37:54;;;;;;;;;;;;;;;14.69;65.47;100116.72;4954199;29;20330;-78
2023/10/24 02:40:19;;;;;;;;;;;;;;;14.69;65.44;100100.41;4969636;28;19925;-79
2023/10/24 02:42:44;;;;;;;;;;;;;;;14.69;65.49;100114.00;4963040;28;19919;-79
2023/10/24 02:45:10;;;;;;;;;;;;;;;14.70;65.67;100112.09;4951300;29;19943;-78
2023/10/24 02:47:35;;;;;;;;;;;;;;;14.71;65.46;100111.00;4953584;29;20018;-78
2023/10/24 02:50:00;;;;;;;;;;;;;;;14.71;65.51;100113.72;4969405;28;19929;-78
2023/10/24 02:52:28;;;;;;;;;;;;;;;14.70;65.43;100121.06;4953247;28;20461;-78
2023/10/24 02:54:53;;;;;;;;;;;;;;;14.72;65.51;100120.78;4936276;28;19914;-78
2023/10/24 02:57:19;;;;;;;;;;;;;;;14.71;65.36;100119.94;4934974;29;19997;-78
2023/10/24 02:59:45;;;;;;;;;;;;;;;14.71;65.43;100119.94;4935252;29;20287;-78
2023/10/24 03:02:10;;;;;;;;;;;;;;;14.71;65.40;100122.66;4938730;29;19949;-78
2023/10/24 03:04:35;;;;;;;;;;;;;;;14.71;65.35;100122.66;4938658;29;19989;-79
2023/10/24 03:07:01;;;;;;;;;;;;;;;14.70;65.18;100122.97;4936065;29;19919;-78
2023/10/24 03:09:26;;;;;;;;;;;;;;;14.70;65.54;100121.06;4935526;29;19923;-78
2023/10/24 03:11:51;;;;;;;;;;;;;;;14.68;65.49;100120.53;4958019;28;19922;-79
2023/10/24 03:14:17;;;;;;;;;;;;;;;14.69;65.47;100127.59;4958229;28;19946;-77
2023/10/24 03:16:42;;;;;;;;;;;;;;;14.68;65.41;100125.97;4951869;28;19962;-78
2023/10/24 03:19:07;;;;;;;;;;;;;;;14.69;65.49;100134.94;4950577;28;19922;-78
2023/10/24 03:21:32;;;;;;;;;;;;;;;14.69;65.59;100124.88;4938807;29;20432;-78
2023/10/24 03:23:58;;;;;;;;;;;;;;;14.67;65.50;100135.22;4939876;29;20012;-78
2023/10/24 03:26:23;;;;;;;;;;;;;;;14.68;65.41;100128.69;4936456;29;19922;-78
2023/10/24 03:28:48;;;;;;;;;;;;;;;14.66;65.52;100133.59;4945295;29;20379;-78
2023/10/24 03:31:13;;;;;;;;;;;;;;;14.66;65.48;100133.59;4935774;29;19949;-78
2023/10/24 03:33:39;;;;;;;;;;;;;;;14.67;65.20;100118.91;4938963;29;20299;-78
2023/10/24 03:36:09;;;;;;;;;;;;;;;14.69;65.30;100129.50;4941628;29;20021;-78
2023/10/24 03:38:35;;;;;;;;;;;;;;;14.66;65.30;100120.00;4933497;29;20260;-78
2023/10/24 03:41:00;;;;;;;;;;;;;;;14.67;65.32;100127.06;4935605;29;19925;-78
2023/10/24 03:43:25;;;;;;;;;;;;;;;14.67;65.29;100126.28;4958512;28;20239;-78
2023/10/24 03:45:50;;;;;;;;;;;;;;;14.67;65.15;100124.34;4939330;29;19929;-77
2023/10/24 03:48:16;;;;;;;;;;;;;;;14.67;65.37;100135.22;4961125;28;20327;-76
2023/10/24 03:50:41;;;;;;;;;;;;;;;14.68;65.36;100127.88;4934815;29;19923;-77
2023/10/24 03:53:07;;;;;;;;;;;;;;;14.66;65.43;100122.72;4952633;29;20271;-79
2023/10/24 03:55:32;;;;;;;;;;;;;;;14.66;65.19;100121.91;4947721;28;19930;-77
2023/10/24 03:57:58;;;;;;;;;;;;;;;14.65;65.26;100137.41;4939846;29;19953;-77
2023/10/24 04:00:23;;;;;;;;;;;;;;;14.65;65.10;100140.13;4953269;28;20021;-78
2023/10/24 04:02:52;;;;;;;;;;;;;;;14.65;65.18;100137.41;4965451;28;19929;-79
2023/10/24 04:05:17;;;;;;;;;;;;;;;14.64;65.43;100143.97;4933644;29;19925;-79
2023/10/24 04:07:42;;;;;;;;;;;;;;;14.64;65.30;100143.97;4935451;29;19919;-77
2023/10/24 04:10:08;;;;;;;;;;;;;;;14.64;64.97;100141.25;4938005;29;19921;-78
2023/10/24 04:12:33;;;;;;;;;;;;;;;14.63;64.97;100136.88;4928262;29;20358;-78
2023/10/24 04:14:59;;;;;;;;;;;;;;;14.61;65.08;100117.31;4952281;29;19990;-77
2023/10/24 04:17:24;;;;;;;;;;;;;;;14.59;65.30;100122.25;4951554;28;19922;-79
2023/10/24 04:19:49;;;;;;;;;;;;;;;14.58;65.37;100122.53;4937586;29;19919;-78
2023/10/24 04:22:15;;;;;;;;;;;;;;;14.59;65.37;100124.97;4934696;29;20328;-79
2023/10/24 04:24:40;;;;;;;;;;;;;;;14.60;65.16;100112.19;4949312;28;19923;-79
2023/10/24 04:27:07;;;;;;;;;;;;;;;14.59;65.25;100113.28;4940539;29;19933;-79
2023/10/24 04:29:32;;;;;;;;;;;;;;;14.58;65.31;100107.03;4950600;29;19918;-80
2023/10/24 04:31:57;;;;;;;;;;;;;;;14.57;65.13;100102.69;4937214;28;19918;-80
2023/10/24 04:34:23;;;;;;;;;;;;;;;14.56;65.11;100101.06;4939569;29;19918;-79
2023/10/24 04:36:48;;;;;;;;;;;;;;;14.57;65.32;100099.19;4952517;29;20353;-78
2023/10/24 04:39:13;;;;;;;;;;;;;;;14.57;64.90;100086.41;4953474;28;19919;-79
2023/10/24 04:41:39;;;;;;;;;;;;;;;14.58;64.92;100088.00;4945211;28;19926;-79
2023/10/24 04:44:04;;;;;;;;;;;;;;;14.59;65.11;100094.25;4950365;28;19926;-80
2023/10/24 04:46:29;;;;;;;;;;;;;;;14.60;65.21;100085.00;4951683;29;20271;-80
2023/10/24 04:48:54;;;;;;;;;;;;;;;14.60;64.73;100087.72;4967428;28;19965;-80
2023/10/24 04:51:20;;;;;;;;;;;;;;;14.60;65.02;100083.09;4942200;29;20291;-79
2023/10/24 04:53:45;;;;;;;;;;;;;;;14.61;65.11;100082.00;4949060;28;19914;-80
2023/10/24 04:56:10;;;;;;;;;;;;;;;14.61;64.97;100084.72;4942707;29;20283;-80
2023/10/24 04:58:36;;;;;;;;;;;;;;;14.61;64.72;100084.72;4934371;29;19958;-79
2023/10/24 05:01:01;;;;;;;;;;;;;;;14.60;65.11;100088.53;4948428;29;19922;-80
2023/10/24 05:03:26;;;;;;;;;;;;;;;14.61;64.89;100094.78;4944402;29;19933;-80
2023/10/24 05:05:52;;;;;;;;;;;;;;;14.62;64.85;100094.50;4963918;28;20302;-77
2023/10/24 05:08:17;;;;;;;;;;;;;;;14.63;65.02;100098.81;4950289;29;19923;-78
2023/10/24 05:10:42;;;;;;;;;;;;;;;14.64;65.03;100096.91;4956642;28;19930;-77
2023/10/24 05:13:07;;;;;;;;;;;;;;;14.63;64.99;100111.63;4958460;28;20070;-79
2023/10/24 05:15:33;;;;;;;;;;;;;;;14.62;65.05;100101.84;4958616;28;19945;-81
2023/10/24 05:17:58;;;;;;;;;;;;;;;14.61;64.82;100103.72;4943238;29;19930;-81
2023/10/24 05:20:23;;;;;;;;;;;;;;;14.60;65.01;100099.41;4940654;28;19923;-79
2023/10/24 05:22:49;;;;;;;;;;;;;;;14.59;64.89;100086.91;4957222;29;20072;-86
2023/10/24 05:25:15;;;;;;;;;;;;;;;14.59;65.20;100088.81;4967779;28;19958;-81
2023/10/24 05:27:40;;;;;;;;;;;;;;;14.58;64.92;100085.28;4954023;29;19922;-78
2023/10/24 05:30:06;;;;;;;;;;;;;;;14.58;65.01;100089.91;4960902;28;20264;-79
2023/10/24 05:32:31;;;;;;;;;;;;;;;14.57;65.08;100091.84;4958145;29;19927;-78
2023/10/24 05:34:56;;;;;;;;;;;;;;;14.56;65.04;100087.47;4969412;28;20351;-79
2023/10/24 05:37:22;;;;;;;;;;;;;;;14.57;64.94;100085.59;4971809;28;19978;-79
2023/10/24 05:39:47;;;;;;;;;;;;;;;14.57;65.05;100083.69;4951217;29;19930;-79
2023/10/24 05:42:12;;;;;;;;;;;;;;;14.57;64.74;100086.41;4969625;28;19990;-80
2023/10/24 05:44:37;;;;;;;;;;;;;;;14.56;64.94;100087.47;4950920;28;19929;-82
2023/10/24 05:47:03;;;;;;;;;;;;;;;14.57;64.97;100086.41;4962233;29;19933;-80
2023/10/24 05:49:29;;;;;;;;;;;;;;;14.57;64.89;100085.59;4972949;28;20394;-83
2023/10/24 05:51:54;;;;;;;;;;;;;;;14.57;64.68;100086.41;4976696;28;19986;-81
2023/10/24 05:54:20;;;;;;;;;;;;;;;14.57;64.88;100099.97;4953645;29;20399;-82
2023/10/24 05:56:45;;;;;;;;;;;;;;;14.56;64.75;100101.06;4950532;29;19918;-80
2023/10/24 05:59:10;;;;;;;;;;;;;;;14.56;64.81;100108.41;4969594;28;19923;-80
2023/10/24 06:01:36;;;;;;;;;;;;;;;14.55;64.92;100110.31;4956536;29;19922;-79
2023/10/24 06:04:01;;;;;;;;;;;;;;;14.55;65.04;100118.47;4964305;28;19940;-75
2023/10/24 06:06:26;;;;;;;;;;;;;;;14.55;64.56;100120.38;4949206;29;19972;-85
2023/10/24 06:08:51;;;;;;;;;;;;;;;14.54;64.60;100119.59;4970686;28;19922;-74
2023/10/24 06:11:17;;;;;;;;;;;;;;;14.52;64.34;100118.22;4944644;28;20330;-80
2023/10/24 06:13:42;;;;;;;;;;;;;;;14.50;64.48;100121.19;4947198;29;20295;-80
2023/10/24 06:16:08;;;;;;;;;;;;;;;14.47;64.76;100119.06;4945495;29;19919;-83
2023/10/24 06:18:33;;;;;;;;;;;;;;;14.47;64.68;100113.63;4949544;29;19918;-83
2023/10/24 06:20:58;;;;;;;;;;;;;;;14.45;64.77;100115.81;4956603;28;20273;-81
2023/10/24 06:23:24;;;;;;;;;;;;;;;14.46;64.81;100118.25;4952650;29;19919;-81
2023/10/24 06:25:49;;;;;;;;;;;;;;;14.48;64.80;100112.50;4945626;29;20171;-81
2023/10/24 06:28:15;;;;;;;;;;;;;;;14.47;64.66;100111.72;4961895;29;19981;-78
2023/10/24 06:30:40;;;;;;;;;;;;;;;14.48;64.61;100113.31;4959570;29;19929;-78
2023/10/24 06:33:05;;;;;;;;;;;;;;;14.48;64.73;100113.31;4957259;28;20012;-78
2023/10/24 06:35:31;;;;;;;;;;;;;;;14.47;64.75;100121.78;4941627;29;20366;-77
2023/10/24 06:37:56;;;;;;;;;;;;;;;14.45;64.76;100123.97;4965348;28;20004;-80
2023/10/24 06:40:22;;;;;;;;;;;;;;;14.45;64.70;100122.06;4963491;28;20387;-84
2023/10/24 06:42:47;;;;;;;;;;;;;;;14.43;64.74;100129.66;4941788;29;20389;-80
2023/10/24 06:45:12;;;;;;;;;;;;;;;14.44;64.86;100131.31;4946607;28;20022;-77
2023/10/24 06:47:38;;;;;;;;;;;;;;;14.43;64.88;100137.00;4957143;28;19941;-79
2023/10/24 06:50:03;;;;;;;;;;;;;;;14.43;64.88;100142.44;4961793;28;19965;-79
2023/10/24 06:52:29;;;;;;;;;;;;;;;14.43;64.62;100150.59;4953804;29;19938;-80
2023/10/24 06:54:54;;;;;;;;;;;;;;;14.42;64.72;100143.56;4943195;29;19923;-79
2023/10/24 06:57:19;;;;;;;;;;;;;;;14.42;64.86;100144.34;4957388;29;19980;-82
2023/10/24 06:59:45;;;;;;;;;;;;;;;14.41;65.02;100139.19;4974035;28;20275;-78
2023/10/24 07:02:10;;;;;;;;;;;;;;;14.40;64.94;100138.38;4966822;28;20058;-82
2023/10/24 07:04:35;;;;;;;;;;;;;;;14.41;65.04;100131.88;4959615;28;19922;-79
2023/10/24 07:07:01;;;;;;;;;;;;;;;14.42;64.69;100143.56;4937205;29;19970;-76
2023/10/24 07:09:26;;;;;;;;;;;;;;;14.41;64.74;100134.59;4936533;29;19914;-78
2023/10/24 07:11:51;;;;;;;;;;;;;;;14.41;64.93;100139.19;4953276;29;19981;-78
2023/10/24 07:14:16;;;;;;;;;;;;;;;14.42;64.97;100138.94;4940078;29;19923;-77
2023/10/24 07:16:42;;;;;;;;;;;;;;;14.43;64.94;100139.72;4951636;28;19978;-79
2023/10/24 07:19:07;;;;;;;;;;;;;;;14.42;64.77;100130.78;4937344;29;20397;-78
2023/10/24 07:21:32;;;;;;;;;;;;;;;14.42;64.56;100130.78;4950876;29;19930;-79
2023/10/24 07:23:58;;;;;;;;;;;;;;;14.42;64.88;100119.91;4948318;29;20718;-79
2023/10/24 07:26:23;;;;;;;;;;;;;;;14.42;64.89;100114.47;4949252;29;20279;-79
2023/10/24 07:28:49;;;;;;;;;;;;;;;14.41;64.87;100110.16;4933261;29;20280;-80
2023/10/24 07:31:14;;;;;;;;;;;;;;;14.42;64.65;100109.03;4941304;29;20379;-80
2023/10/24 07:33:41;;;;;;;;;;;;;;;14.43;64.73;100113.38;4956205;28;20423;-81
2023/10/24 07:36:06;;;;;;;;;;;;;;;14.43;64.67;100107.13;4964388;28;20378;-78
2023/10/24 07:38:32;;;;;;;;;;;;;;;14.44;64.88;100109.56;4950626;29;19986;-80
2023/10/24 07:40:58;;;;;;;;;;;;;;;14.44;64.77;100090.53;4944550;29;20415;-79
2023/10/24 07:43:23;;;;;;;;;;;;;;;14.43;64.75;100105.22;4949116;28;20001;-78
2023/10/24 07:45:53;;;;;;;;;;;;;;;14.44;64.96;100103.34;4959667;28;19919;-77
2023/10/24 07:48:19;;;;;;;;;;;;;;;14.44;64.85;100112.28;4948395;29;19918;-80
2023/10/24 07:50:51;;;;;;;;;;;;;;;14.45;64.88;100110.38;4957940;28;19925;-80
2023/10/24 07:53:17;;;;;;;;;;;;;;;14.45;64.79;100110.38;4963312;28;19972;-80
2023/10/24 07:55:43;;;;;;;;;;;;;;;14.43;64.85;100102.50;4948453;28;20355;-79
2023/10/24 07:58:08;;;;;;;;;;;;;;;14.44;64.80;100104.13;4957307;28;19923;-80
2023/10/24 08:00:34;;;;;;;;;;;;;;;14.45;64.57;100102.22;4956894;29;19922;-78
2023/10/24 08:02:59;;;;;;;;;;;;;;;14.46;64.86;100107.38;4949240;29;20007;-78
2023/10/24 08:05:24;;;;;;;;;;;;;;;14.46;64.79;100109.25;4937178;29;19919;-80
2023/10/24 08:07:49;;;;;;;;;;;;;;;14.46;64.59;100110.09;4938930;29;19923;-80
2023/10/24 08:10:16;;;;;;;;;;;;;;;14.46;64.71;100104.66;4960767;29;19926;-80
2023/10/24 08:12:41;;;;;;;;;;;;;;;14.45;64.90;100107.66;4958099;29;20410;-79
2023/10/24 08:15:06;;;;;;;;;;;;;;;14.46;64.62;100107.38;4952428;29;19926;-79
2023/10/24 08:17:32;;;;;;;;;;;;;;;14.48;64.96;100104.38;4934663;29;20522;-79
2023/10/24 08:19:57;;;;;;;;;;;;;;;14.47;64.81;100109.00;4952195;28;19925;-79
2023/10/24 08:22:22;;;;;;;;;;;;;;;14.48;64.84;100115.22;4954939;28;19962;-79
2023/10/24 08:24:48;;;;;;;;;;;;;;;14.48;64.75;100115.22;4946960;28;19929;-79
2023/10/24 08:27:14;;;;;;;;;;;;;;;14.47;64.66;100127.22;4935607;29;19915;-81
2023/10/24 08:29:39;;;;;;;;;;;;;;;14.48;64.96;100117.94;4940901;29;19933;-78
2023/10/24 08:32:05;;;;;;;;;;;;;;;14.48;64.79;100117.94;4951188;29;20112;-79
2023/10/24 08:34:30;;;;;;;;;;;;;;;14.48;64.56;100120.66;4948695;29;19929;-79
2023/10/24 08:36:56;;;;;;;;;;;;;;;14.49;64.61;100119.59;4945725;29;20587;-79
2023/10/24 08:39:23;;;;;;;;;;;;;;;14.47;64.59;100129.94;4934297;29;20315;-79
2023/10/24 08:41:51;;;;;;;;;;;;;;;14.47;64.88;100144.31;4956897;28;20361;-80
2023/10/24 08:44:17;;;;;;;;;;;;;;;14.47;64.75;100143.53;4933807;29;19918;-80
2023/10/24 08:46:42;;;;;;;;;;;;;;;14.48;64.65;100136.97;4947544;28;20268;-78
2023/10/24 08:49:09;;;;;;;;;;;;;;;14.48;64.63;100136.97;4949903;28;20013;-77
2023/10/24 08:51:35;;;;;;;;;;;;;;;14.48;64.64;100148.66;4951915;29;19918;-79
2023/10/24 08:54:00;;;;;;;;;;;;;;;14.48;64.88;100145.13;4938132;28;19919;-79
2023/10/24 08:56:26;;;;;;;;;;;;;;;14.48;64.73;100147.84;4935194;29;19914;-80
2023/10/24 08:58:52;;;;;;;;;;;;;;;14.49;64.65;100133.19;4942217;29;19926;-77
2023/10/24 09:01:18;;;;;;;;;;;;;;;14.48;64.89;100129.63;4947620;28;19941;-80
2023/10/24 09:03:44;;;;;;;;;;;;;;;14.49;64.76;100130.47;4957661;28;20367;-80
2023/10/24 09:06:09;;;;;;;;;;;;;;;14.49;64.92;100125.03;4936782;29;19919;-79
2023/10/24 09:08:34;;;;;;;;;;;;;;;14.49;64.87;100122.31;4953540;28;19930;-78
2023/10/24 09:11:00;;;;;;;;;;;;;;;14.50;64.89;100124.72;4952575;29;20076;-79
2023/10/24 09:13:26;;;;;;;;;;;;;;;14.50;64.73;100127.44;4953900;29;20371;-80
2023/10/24 09:16:10;;;;;;;;;;;;;;;14.52;64.93;100129.88;4935780;28;20411;-80
2023/10/24 09:18:39;;;;;;;;;;;;;;;14.52;64.78;100119.03;4936803;29;19994;-80
2023/10/24 09:21:06;;;;;;;;;;;;;;;14.52;64.86;100116.31;4936373;29;20497;-78
2023/10/24 09:23:32;;;;;;;;;;;;;;;14.53;64.67;100101.63;4941808;29;19922;-80
2023/10/24 09:26:00;;;;;;;;;;;;;;;14.53;64.94;100120.66;4952702;29;19958;-81
2023/10/24 09:28:25;;;;;;;;;;;;;;;14.53;64.99;100120.66;4943604;29;19934;-78
2023/10/24 09:30:50;;;;;;;;;;;;;;;14.54;64.99;100118.75;4928009;29;19934;-80
2023/10/24 09:33:15;;;;;;;;;;;;;;;14.54;64.88;100118.75;4949410;29;19922;-80
2023/10/24 09:35:41;;;;;;;;;;;;;;;14.54;64.67;100114.16;4953187;28;20371;-74
2023/10/24 09:38:07;;;;;;;;;;;;;;;14.54;64.67;100113.31;4952085;29;19961;-84
2023/10/24 09:40:36;;;;;;;;;;;;;;;14.55;64.76;100106.81;4942510;29;20400;-82
2023/10/24 09:43:10;;;;;;;;;;;;;;;14.54;64.75;100103.28;4954084;28;19919;-82
2023/10/24 09:45:37;;;;;;;;;;;;;;;14.55;64.87;100107.59;4939995;29;19925;-82
2023/10/24 09:48:03;;;;;;;;;;;;;;;14.57;64.83;100104.63;4953516;28;19919;-81
2023/10/24 09:50:29;;;;;;;;;;;;;;;14.58;64.82;100109.75;4953544;28;20016;-82
2023/10/24 09:52:55;;;;;;;;;;;;;;;14.60;65.05;100106.75;4952745;29;19919;-83
2023/10/24 09:55:21;;;;;;;;;;;;;;;14.61;64.85;100109.16;4950734;29;20440;-81
2023/10/24 09:57:48;;;;;;;;;;;;;;;14.64;64.64;100108.63;4954313;28;19927;-82
2023/10/24 10:00:13;;;;;;;;;;;;;;;14.63;64.94;100100.75;4940833;29;20017;-82
2023/10/24 10:02:41;;;;;;;;;;;;;;;14.61;65.11;100101.00;4951017;29;20374;-81
2023/10/24 10:05:07;;;;;;;;;;;;;;;14.62;65.03;100102.66;4947895;28;19993;-80
2023/10/24 10:07:33;;;;;;;;;;;;;;;14.63;65.02;100108.91;4944023;28;19923;-82
2023/10/24 10:09:59;;;;;;;;;;;;;;;14.62;64.76;100099.94;4949673;28;19926;-80
2023/10/24 10:12:26;;;;;;;;;;;;;;;14.64;64.95;100107.78;4961677;28;19965;-79
2023/10/24 10:15:00;;;;;;;;;;;;;;;14.65;64.82;100110.22;4947121;29;19918;-79
2023/10/24 10:17:28;;;;;;;;;;;;;;;14.68;64.71;100109.66;4959261;28;20017;-79
2023/10/24 10:19:54;;;;;;;;;;;;;;;14.68;64.92;100114.28;4937538;29;19982;-80
2023/10/24 10:22:28;;;;;;;;;;;;;;;14.69;64.90;100122.16;4950538;29;19973;-80
2023/10/24 10:25:03;;;;;;;;;;;;;;;14.70;64.82;100123.78;4952893;28;19918;-80
2023/10/24 10:27:37;;;;;;;;;;;;;;;14.71;64.95;100130.81;4954132;28;19918;-79
2023/10/24 10:30:22;;;;;;;;;;;;;;;14.74;64.77;100125.91;4950329;28;19925;-80
2023/10/24 10:32:50;;;;;;;;;;;;;;;14.71;64.94;100127.31;4934925;29;19921;-80
2023/10/24 10:35:17;;;;;;;;;;;;;;;14.73;64.96;100124.31;4935632;29;19915;-78
2023/10/24 10:37:59;;;;;;;;;;;;;;;14.73;64.96;100125.13;4941788;29;20363;-79
2023/10/24 10:40:24;;;;;;;;;;;;;;;14.74;65.07;100125.91;4952745;29;19914;-79
2023/10/24 10:42:52;;;;;;;;;;;;;;;14.74;64.95;100124.03;4947575;28;19925;-76
2023/10/24 10:45:25;;;;;;;;;;;;;;;14.74;64.91;100137.63;4935288;29;19923;-80
2023/10/24 10:47:55;;;;;;;;;;;;;;;14.75;64.81;100131.09;4938998;29;19926;-80
2023/10/24 10:50:39;;;;;;;;;;;;;;;14.77;64.60;100125.38;4940156;29;19915;-80
2023/10/24 10:53:21;;;;;;;;;;;;;;;14.77;64.65;100125.38;4950455;28;19929;-83
2023/10/24 10:55:49;;;;;;;;;;;;;;;14.76;64.84;100119.09;4949989;29;19964;-81
2023/10/24 10:58:22;;;;;;;;;;;;;;;14.77;65.05;100128.09;4941519;29;20303;-83
2023/10/24 11:00:50;;;;;;;;;;;;;;;14.73;65.21;100122.41;4957514;28;19922;-85
2023/10/24 11:03:36;;;;;;;;;;;;;;;14.73;65.25;100113.44;4943497;28;19974;-84
2023/10/24 11:06:09;;;;;;;;;;;;;;;14.71;65.32;100106.34;4949865;29;20357;-85
2023/10/24 11:08:34;;;;;;;;;;;;;;;14.73;65.30;100122.41;4947834;28;19955;-85
2023/10/24 11:11:02;;;;;;;;;;;;;;;14.72;65.12;100112.63;4944888;28;20030;-81
2023/10/24 11:13:36;;;;;;;;;;;;;;;14.73;65.03;100113.44;4951155;29;19926;-84
2023/10/24 11:16:03;;;;;;;;;;;;;;;14.73;65.33;100111.53;4949866;29;19918;-83
2023/10/24 11:18:29;;;;;;;;;;;;;;;14.74;65.07;100115.88;4948990;29;20319;-83
2023/10/24 11:20:54;;;;;;;;;;;;;;;14.73;65.31;100110.72;4950507;29;19929;-83
2023/10/24 11:23:20;;;;;;;;;;;;;;;14.73;65.04;100116.97;4947308;29;19927;-87
2023/10/24 11:25:46;;;;;;;;;;;;;;;14.75;65.32;100111.25;4951663;29;19922;-84
2023/10/24 11:28:11;;;;;;;;;;;;;;;14.75;65.03;100103.91;4955907;28;19929;-86
2023/10/24 11:30:36;;;;;;;;;;;;;;;14.77;65.11;100095.47;4935494;29;20303;-84
2023/10/24 11:33:02;;;;;;;;;;;;;;;14.77;65.29;100079.97;4941147;29;19914;-79
2023/10/24 11:35:27;;;;;;;;;;;;;;;14.79;64.95;100080.50;4950739;28;19985;-80
2023/10/24 11:37:52;;;;;;;;;;;;;;;14.80;64.97;100079.38;4942063;29;19918;-79
2023/10/24 11:40:18;;;;;;;;;;;;;;;14.81;65.00;100072.84;4940401;29;19930;-78
2023/10/24 11:42:43;;;;;;;;;;;;;;;14.82;64.74;100073.66;4949296;28;19922;-78
2023/10/24 11:45:09;;;;;;;;;;;;;;;14.83;64.76;100078.81;4957528;28;19958;-78
2023/10/24 11:47:34;;;;;;;;;;;;;;;14.83;64.85;100073.38;4948844;29;19930;-75
2023/10/24 11:49:59;;;;;;;;;;;;;;;14.85;64.77;100064.94;4944174;29;19928;-76
2023/10/24 11:52:25;;;;;;;;;;;;;;;14.86;64.95;100069.25;4934244;29;19926;-78
2023/10/24 11:54:53;;;;;;;;;;;;;;;14.86;64.80;100067.34;4933322;29;19929;-79
2023/10/24 11:57:19;;;;;;;;;;;;;;;14.86;65.13;100071.97;4948210;28;19961;-80
2023/10/24 11:59:46;;;;;;;;;;;;;;;14.87;64.94;100065.47;4948988;29;19962;-79
2023/10/24 12:02:11;;;;;;;;;;;;;;;14.86;65.13;100058.38;4948524;29;19930;-79
2023/10/24 12:04:36;;;;;;;;;;;;;;;14.88;64.72;100056.19;4948691;29;19923;-79
2023/10/24 12:07:07;;;;;;;;;;;;;;;14.88;65.06;100056.19;4961717;28;20402;-80
2023/10/24 12:09:33;;;;;;;;;;;;;;;14.88;64.76;100062.44;4947430;29;19965;-83
2023/10/24 12:12:00;;;;;;;;;;;;;;;14.89;64.90;100065.97;4949453;28;20045;-83
2023/10/24 12:14:26;;;;;;;;;;;;;;;14.89;64.95;100058.63;4948974;29;19918;-82
2023/10/24 12:16:51;;;;;;;;;;;;;;;14.89;64.70;100053.19;4951190;28;20279;-86
2023/10/24 12:19:16;;;;;;;;;;;;;;;14.90;64.67;100051.28;4948777;29;19930;-83
2023/10/24 12:21:42;;;;;;;;;;;;;;;14.90;65.03;100052.09;4948457;29;19922;-83
2023/10/24 12:24:07;;;;;;;;;;;;;;;14.91;64.91;100056.41;4936717;29;19992;-84
2023/10/24 12:26:34;;;;;;;;;;;;;;;14.91;64.70;100064.56;4950276;29;20371;-81
2023/10/24 12:29:00;;;;;;;;;;;;;;;14.92;64.61;100065.41;4939489;29;19930;-79
2023/10/24 12:31:25;;;;;;;;;;;;;;;14.91;64.87;100064.56;4964350;28;19953;-82